Time;durP1;ratioP1;P1;durP2;ratioP2;P2;SDS_P1;SDS_P2;PMS_P1;PMS_P2;Temp;Humidity;BMP_temperature;BMP_pressure;BME280_temperature;BME280_humidity;BME280_pressure;Samples;Min_cycle;Max_cycle;Signal;HPM_P1;HPM_P2
2020/12/27 00:02:03;;;;;;;3.67;1.60;;;4.20;99.90;;;;;;5013152;28;20192;-73
2020/12/27 00:04:29;;;;;;;1.90;1.17;;;4.30;99.90;;;;;;5013135;28;20183;-73
2020/12/27 00:06:55;;;;;;;1.43;1.33;;;4.20;99.90;;;;;;5013389;28;20454;-73
2020/12/27 00:09:20;;;;;;;3.13;1.80;;;4.20;99.90;;;;;;5015544;28;20184;-73
2020/12/27 00:11:46;;;;;;;2.90;1.37;;;4.10;99.90;;;;;;5012806;28;20250;-73
2020/12/27 00:14:11;;;;;;;2.90;1.60;;;4.20;99.90;;;;;;5013026;28;20196;-73
2020/12/27 00:16:37;;;;;;;2.50;1.53;;;4.10;99.90;;;;;;5012463;28;20246;-73
2020/12/27 00:19:02;;;;;;;1.73;1.63;;;4.20;99.90;;;;;;5013518;28;20361;-73
2020/12/27 00:21:28;;;;;;;2.40;1.50;;;4.20;99.90;;;;;;5012838;28;20733;-73
2020/12/27 00:23:53;;;;;;;2.70;1.50;;;4.10;99.90;;;;;;5010442;28;20261;-73
2020/12/27 00:26:19;;;;;;;1.37;1.27;;;4.10;99.90;;;;;;5010284;28;20180;-73
2020/12/27 00:28:45;;;;;;;1.30;1.20;;;4.10;99.90;;;;;;5007187;28;20262;-73
2020/12/27 00:31:18;;;;;;;2.50;1.27;;;4.20;99.90;;;;;;5027685;28;20395;-73
2020/12/27 00:33:43;;;;;;;1.77;1.30;;;4.20;99.90;;;;;;5013160;28;20634;-73
2020/12/27 00:36:09;;;;;;;3.57;1.53;;;4.20;99.90;;;;;;5012723;28;20423;-73
2020/12/27 00:38:35;;;;;;;1.33;1.23;;;4.20;99.90;;;;;;5011626;28;20233;-73
2020/12/27 00:41:00;;;;;;;2.00;1.40;;;4.20;99.90;;;;;;5012398;28;20184;-73
2020/12/27 00:43:26;;;;;;;1.27;1.00;;;4.20;99.90;;;;;;5012690;28;20177;-72
2020/12/27 00:45:52;;;;;;;1.20;1.10;;;4.30;99.90;;;;;;5010498;28;20202;-73
2020/12/27 00:48:17;;;;;;;1.57;1.10;;;4.20;99.90;;;;;;5012675;28;20929;-73
2020/12/27 00:50:43;;;;;;;1.10;0.87;;;4.20;99.90;;;;;;5012286;28;20176;-73
2020/12/27 00:53:08;;;;;;;1.23;0.97;;;4.20;99.90;;;;;;5012264;28;20284;-73
2020/12/27 00:55:34;;;;;;;2.30;1.20;;;4.30;99.90;;;;;;5008766;28;20176;-73
2020/12/27 00:57:59;;;;;;;1.50;1.40;;;4.30;99.90;;;;;;5012792;28;20173;-74
2020/12/27 01:00:25;;;;;;;1.40;1.20;;;4.30;99.90;;;;;;5012499;28;20554;-73
2020/12/27 01:02:51;;;;;;;1.50;1.30;;;4.30;99.90;;;;;;5011693;28;20204;-73
2020/12/27 01:05:16;;;;;;;1.17;0.87;;;4.30;99.90;;;;;;5012394;28;20324;-73
2020/12/27 01:07:42;;;;;;;1.67;1.43;;;4.40;99.90;;;;;;5012365;28;20180;-73
2020/12/27 01:10:07;;;;;;;1.20;1.10;;;4.20;99.90;;;;;;5012338;28;20538;-73
2020/12/27 01:12:33;;;;;;;7.40;1.47;;;4.20;99.90;;;;;;5011937;28;20215;-73
2020/12/27 01:14:59;;;;;;;1.57;1.20;;;4.20;99.90;;;;;;5011014;28;20684;-73
2020/12/27 01:17:24;;;;;;;1.20;0.80;;;4.20;99.90;;;;;;5012331;28;20255;-73
2020/12/27 01:19:50;;;;;;;1.50;1.30;;;4.30;99.90;;;;;;5012047;28;20180;-73
2020/12/27 01:22:15;;;;;;;3.63;2.30;;;4.20;99.90;;;;;;5011884;28;20570;-73
2020/12/27 01:24:41;;;;;;;1.17;1.07;;;4.20;99.90;;;;;;5012173;28;22019;-73
2020/12/27 01:27:07;;;;;;;1.30;1.00;;;4.20;99.90;;;;;;5011496;28;20668;-73
2020/12/27 01:29:32;;;;;;;1.20;1.00;;;4.20;99.90;;;;;;5026902;28;20179;-73
2020/12/27 01:32:01;;;;;;;1.40;1.10;;;4.30;99.90;;;;;;5011816;28;20207;-73
2020/12/27 01:34:30;;;;;;;1.53;1.20;;;4.30;99.90;;;;;;5012009;28;20168;-73
2020/12/27 01:36:55;;;;;;;1.30;1.00;;;4.30;99.90;;;;;;4997756;28;20424;-73
2020/12/27 01:39:21;;;;;;;1.40;1.20;;;4.40;99.90;;;;;;5011779;28;20510;-73
2020/12/27 01:41:47;;;;;;;1.53;1.10;;;4.30;99.90;;;;;;5009368;28;20623;-73
2020/12/27 01:44:14;;;;;;;2.00;0.90;;;4.40;99.90;;;;;;5038110;28;20186;-73
2020/12/27 01:46:42;;;;;;;1.60;1.17;;;4.40;99.90;;;;;;5010460;28;20199;-73
2020/12/27 01:49:10;;;;;;;1.43;1.17;;;4.40;99.90;;;;;;5001102;28;20478;-73
2020/12/27 01:51:36;;;;;;;1.20;1.10;;;4.40;99.90;;;;;;5011104;28;20905;-72
2020/12/27 01:54:02;;;;;;;1.20;1.10;;;4.40;99.90;;;;;;5010330;28;20841;-72
2020/12/27 01:56:49;;;;;;;1.10;1.00;;;4.40;99.90;;;;;;5010159;28;20772;-73
2020/12/27 01:59:21;;;;;;;1.00;0.90;;;4.40;99.90;;;;;;5010912;28;20855;-73
2020/12/27 02:01:47;;;;;;;1.70;1.07;;;4.50;99.90;;;;;;5010757;28;20461;-73
2020/12/27 02:04:13;;;;;;;1.33;1.10;;;4.40;99.90;;;;;;5010640;28;20426;-73
2020/12/27 02:06:42;;;;;;;0.80;0.70;;;4.40;99.90;;;;;;5022101;28;20454;-73
2020/12/27 02:09:08;;;;;;;1.20;0.93;;;4.50;99.90;;;;;;5010517;28;20262;-73
2020/12/27 02:11:34;;;;;;;1.07;0.97;;;4.50;99.90;;;;;;5008278;28;20502;-73
2020/12/27 02:13:59;;;;;;;1.30;1.00;;;4.50;99.90;;;;;;5011731;28;20454;-73
2020/12/27 02:16:28;;;;;;;1.43;0.87;;;4.50;99.90;;;;;;5011008;28;20180;-73
2020/12/27 02:18:57;;;;;;;2.60;1.00;;;4.60;99.90;;;;;;4999218;28;20193;-73
2020/12/27 02:21:24;;;;;;;1.70;1.10;;;4.60;99.90;;;;;;5011590;28;20509;-73
2020/12/27 02:23:56;;;;;;;0.80;0.70;;;4.60;99.90;;;;;;5011806;28;20423;-73
2020/12/27 02:26:22;;;;;;;1.57;1.20;;;4.50;99.90;;;;;;5040470;28;20457;-73
2020/12/27 02:28:48;;;;;;;1.00;0.87;;;4.50;99.90;;;;;;5011701;28;20428;-73
2020/12/27 02:31:13;;;;;;;1.00;0.70;;;4.50;99.90;;;;;;5008869;28;20449;-73
2020/12/27 02:33:39;;;;;;;1.33;1.03;;;4.60;99.90;;;;;;5025908;28;20608;-73
2020/12/27 02:36:05;;;;;;;1.47;1.00;;;4.60;99.90;;;;;;5010262;28;20176;-73
2020/12/27 02:38:30;;;;;;;1.50;1.10;;;4.60;99.90;;;;;;5012048;28;20180;-73
2020/12/27 02:40:56;;;;;;;1.43;0.80;;;4.60;99.90;;;;;;5027807;28;20176;-73
2020/12/27 02:43:21;;;;;;;1.13;1.00;;;4.60;99.90;;;;;;5014557;28;20824;-73
2020/12/27 02:45:48;;;;;;;0.87;0.67;;;4.60;99.90;;;;;;5014110;28;20180;-73
2020/12/27 02:48:14;;;;;;;0.90;0.77;;;4.60;99.90;;;;;;5029367;28;20196;-73
2020/12/27 02:50:40;;;;;;;1.30;0.90;;;4.70;99.90;;;;;;5012339;28;20442;-73
2020/12/27 02:53:05;;;;;;;1.10;1.00;;;4.60;99.90;;;;;;5011655;28;20840;-73
2020/12/27 02:55:32;;;;;;;2.70;0.90;;;4.60;99.90;;;;;;5014485;28;20172;-73
2020/12/27 02:57:58;;;;;;;1.20;0.90;;;4.60;99.90;;;;;;5014990;28;20694;-73
2020/12/27 03:00:24;;;;;;;1.60;0.93;;;4.60;99.90;;;;;;5012319;28;20518;-72
2020/12/27 03:02:49;;;;;;;2.40;0.80;;;4.60;99.90;;;;;;5010983;28;20439;-73
2020/12/27 03:05:15;;;;;;;0.90;0.70;;;4.60;99.90;;;;;;5014226;28;20423;-72
2020/12/27 03:07:40;;;;;;;1.13;0.90;;;4.60;99.90;;;;;;5014172;28;20176;-73
2020/12/27 03:10:06;;;;;;;1.03;0.80;;;4.60;99.90;;;;;;5014493;28;20796;-73
2020/12/27 03:12:32;;;;;;;0.93;0.83;;;4.60;99.90;;;;;;5012932;28;20231;-73
2020/12/27 03:14:58;;;;;;;1.23;0.87;;;4.60;99.90;;;;;;5013346;28;20896;-73
2020/12/27 03:17:24;;;;;;;0.93;0.70;;;4.60;99.90;;;;;;5011263;28;20582;-74
2020/12/27 03:19:49;;;;;;;0.87;0.77;;;4.70;99.90;;;;;;5006509;28;20176;-73
2020/12/27 03:22:15;;;;;;;0.93;0.80;;;4.70;99.90;;;;;;5013711;28;20192;-73
2020/12/27 03:24:40;;;;;;;1.43;0.93;;;4.60;99.90;;;;;;5014253;28;20176;-73
2020/12/27 03:27:06;;;;;;;0.93;0.87;;;4.60;99.90;;;;;;5014055;28;20255;-73
2020/12/27 03:29:32;;;;;;;1.10;0.70;;;4.60;99.90;;;;;;5014038;28;20176;-73
2020/12/27 03:31:58;;;;;;;1.10;0.83;;;4.60;99.90;;;;;;5011207;28;20466;-73
2020/12/27 03:34:24;;;;;;;2.30;0.80;;;4.60;99.90;;;;;;5012827;28;20168;-73
2020/12/27 03:36:49;;;;;;;1.00;0.90;;;4.60;99.90;;;;;;5012495;28;20171;-73
2020/12/27 03:39:15;;;;;;;0.80;0.63;;;4.60;99.90;;;;;;5013250;28;20237;-73
2020/12/27 03:41:41;;;;;;;1.30;0.80;;;4.60;99.90;;;;;;5012703;28;20192;-73
2020/12/27 03:44:07;;;;;;;1.10;0.77;;;4.60;99.90;;;;;;5013411;28;20187;-73
2020/12/27 03:46:32;;;;;;;1.00;0.90;;;4.60;99.90;;;;;;5013906;28;20502;-73
2020/12/27 03:48:58;;;;;;;1.10;0.80;;;4.60;99.90;;;;;;5011961;28;20267;-73
2020/12/27 03:51:24;;;;;;;0.70;0.60;;;4.70;99.90;;;;;;5012525;28;20207;-73
2020/12/27 03:53:50;;;;;;;0.90;0.70;;;4.60;99.90;;;;;;5012246;28;20176;-73
2020/12/27 03:56:15;;;;;;;3.33;0.60;;;4.60;99.90;;;;;;5013028;28;20948;-73
2020/12/27 03:58:41;;;;;;;1.80;0.67;;;4.60;99.90;;;;;;5011376;28;20180;-73
2020/12/27 04:01:06;;;;;;;0.70;0.60;;;4.60;99.90;;;;;;5013121;28;20180;-73
2020/12/27 04:03:32;;;;;;;0.80;0.60;;;4.60;99.90;;;;;;5013537;28;20540;-73
2020/12/27 04:05:57;;;;;;;1.20;0.70;;;4.60;99.90;;;;;;5011830;28;20191;-73
2020/12/27 04:08:23;;;;;;;0.80;0.60;;;4.60;99.90;;;;;;5013934;28;20172;-73
2020/12/27 04:10:49;;;;;;;0.80;0.70;;;4.60;99.90;;;;;;5026457;28;20693;-73
2020/12/27 04:13:15;;;;;;;0.83;0.67;;;4.60;99.90;;;;;;5011309;28;20700;-73
2020/12/27 04:15:41;;;;;;;0.70;0.50;;;4.60;99.90;;;;;;5008950;28;20175;-73
2020/12/27 04:18:07;;;;;;;1.37;0.57;;;4.60;99.90;;;;;;5012412;28;20534;-73
2020/12/27 04:20:32;;;;;;;0.80;0.70;;;4.60;99.90;;;;;;5011890;28;20614;-73
2020/12/27 04:22:58;;;;;;;0.90;0.50;;;4.60;99.90;;;;;;5012868;28;20458;-73
2020/12/27 04:25:23;;;;;;;0.80;0.60;;;4.60;99.90;;;;;;5012939;28;20255;-73
2020/12/27 04:27:49;;;;;;;2.10;0.50;;;4.60;99.90;;;;;;5013055;28;20184;-73
2020/12/27 04:30:15;;;;;;;0.80;0.60;;;4.70;99.90;;;;;;5011887;28;20183;-73
2020/12/27 04:32:40;;;;;;;3.83;0.80;;;4.70;99.90;;;;;;5012688;28;20196;-73
2020/12/27 04:35:06;;;;;;;0.70;0.50;;;4.70;99.90;;;;;;5011891;28;20684;-73
2020/12/27 04:37:31;;;;;;;0.90;0.60;;;4.60;99.90;;;;;;5009280;28;20317;-73
2020/12/27 04:39:57;;;;;;;0.73;0.53;;;4.60;99.90;;;;;;5012285;28;20200;-73
2020/12/27 04:42:24;;;;;;;0.70;0.50;;;4.60;99.90;;;;;;5012171;28;20196;-73
2020/12/27 04:44:50;;;;;;;0.80;0.60;;;4.60;99.90;;;;;;5012372;28;20255;-73
2020/12/27 04:47:16;;;;;;;1.30;0.67;;;4.60;99.90;;;;;;5011856;28;20462;-73
2020/12/27 04:49:42;;;;;;;2.33;0.60;;;4.60;99.90;;;;;;5012515;28;20480;-73
2020/12/27 04:52:11;;;;;;;0.77;0.60;;;4.50;99.90;;;;;;5011911;28;20462;-73
2020/12/27 04:54:38;;;;;;;0.70;0.60;;;4.50;99.90;;;;;;5012667;28;20426;-73
2020/12/27 04:57:03;;;;;;;0.93;0.63;;;4.50;99.90;;;;;;5012377;28;20423;-73
2020/12/27 04:59:29;;;;;;;1.10;0.70;;;4.50;99.90;;;;;;5012237;28;20773;-73
2020/12/27 05:01:55;;;;;;;0.83;0.50;;;4.50;99.90;;;;;;5011159;28;20203;-73
2020/12/27 05:04:26;;;;;;;0.80;0.50;;;4.60;99.90;;;;;;5009996;28;20188;-73
2020/12/27 05:06:55;;;;;;;0.80;0.60;;;4.60;99.90;;;;;;5012368;28;20477;-73
2020/12/27 05:09:30;;;;;;;0.83;0.60;;;4.60;99.90;;;;;;5011920;28;20443;-72
2020/12/27 05:11:57;;;;;;;0.80;0.60;;;4.60;99.90;;;;;;5011613;28;20512;-73
2020/12/27 05:14:28;;;;;;;2.10;0.70;;;4.60;99.90;;;;;;5027164;28;20431;-73
2020/12/27 05:16:57;;;;;;;4.13;0.60;;;4.50;99.90;;;;;;5011931;28;20481;-73
2020/12/27 05:19:22;;;;;;;1.77;0.50;;;4.60;99.90;;;;;;5011675;28;20445;-73
2020/12/27 05:21:48;;;;;;;0.90;0.60;;;4.60;99.90;;;;;;5011792;28;20459;-73
2020/12/27 05:24:16;;;;;;;0.80;0.60;;;4.60;99.90;;;;;;5011875;28;20426;-73
2020/12/27 05:26:42;;;;;;;0.80;0.57;;;4.60;99.90;;;;;;5011967;28;20180;-73
2020/12/27 05:29:08;;;;;;;0.90;0.50;;;4.50;99.90;;;;;;5012249;28;20962;-73
2020/12/27 05:31:36;;;;;;;1.03;0.67;;;4.60;99.90;;;;;;5043079;28;20454;-73
2020/12/27 05:34:03;;;;;;;0.97;0.60;;;4.60;99.90;;;;;;5012026;28;20419;-73
2020/12/27 05:36:31;;;;;;;0.70;0.50;;;4.60;99.90;;;;;;5012145;28;20913;-73
2020/12/27 05:38:56;;;;;;;0.70;0.60;;;4.70;99.90;;;;;;5011249;28;20438;-73
2020/12/27 05:41:30;;;;;;;0.80;0.50;;;4.70;99.90;;;;;;5011522;28;20493;-73
2020/12/27 05:44:04;;;;;;;0.77;0.50;;;4.70;99.90;;;;;;5011794;28;20506;-73
2020/12/27 05:46:30;;;;;;;0.70;0.50;;;4.70;99.90;;;;;;5012309;28;20484;-73
2020/12/27 05:48:58;;;;;;;0.70;0.50;;;4.80;99.90;;;;;;5012019;28;20419;-72
2020/12/27 05:51:25;;;;;;;0.70;0.60;;;4.80;99.90;;;;;;5010963;28;20884;-73
2020/12/27 05:53:51;;;;;;;0.80;0.60;;;4.80;99.90;;;;;;5011639;28;20442;-72
2020/12/27 05:56:19;;;;;;;0.80;0.50;;;4.80;99.90;;;;;;5011206;28;20431;-73
2020/12/27 05:58:45;;;;;;;0.70;0.50;;;4.80;99.90;;;;;;5011462;28;20439;-73
2020/12/27 06:01:20;;;;;;;0.80;0.60;;;4.80;99.90;;;;;;5010754;28;20486;-73
2020/12/27 06:03:57;;;;;;;0.80;0.60;;;4.80;99.90;;;;;;5011897;28;20431;-72
2020/12/27 06:07:00;;;;;;;0.70;0.50;;;4.80;99.90;;;;;;5003451;28;20433;-73
2020/12/27 06:09:53;;;;;;;0.80;0.50;;;4.90;99.90;;;;;;5011443;28;20427;-73
2020/12/27 06:12:21;;;;;;;0.80;0.60;;;4.80;99.90;;;;;;5010496;28;20458;-75
2020/12/27 06:15:07;;;;;;;0.90;0.50;;;4.80;99.90;;;;;;5014274;28;20446;-72
2020/12/27 06:18:05;;;;;;;0.70;0.43;;;4.80;99.90;;;;;;5010959;28;20428;-72
2020/12/27 06:20:39;;;;;;;0.80;0.57;;;4.90;99.90;;;;;;5009215;28;20836;-73
2020/12/27 06:23:06;;;;;;;1.17;0.60;;;4.90;99.90;;;;;;5014998;28;20454;-73
2020/12/27 06:25:33;;;;;;;1.07;0.70;;;4.90;99.90;;;;;;5014821;28;20430;-73
2020/12/27 06:27:59;;;;;;;0.70;0.50;;;4.90;99.90;;;;;;5014911;28;20434;-73
2020/12/27 06:30:46;;;;;;;0.80;0.50;;;4.90;99.90;;;;;;5015035;28;20443;-72
2020/12/27 06:33:20;;;;;;;0.93;0.60;;;4.90;99.90;;;;;;5013945;28;20828;-73
2020/12/27 06:35:46;;;;;;;0.70;0.50;;;4.90;99.90;;;;;;5015085;28;20998;-73
2020/12/27 06:38:16;;;;;;;0.80;0.60;;;4.90;99.90;;;;;;5015050;28;20411;-73
2020/12/27 06:40:44;;;;;;;0.93;0.60;;;4.80;99.90;;;;;;5013675;28;20434;-72
2020/12/27 06:43:14;;;;;;;0.80;0.50;;;4.90;99.90;;;;;;5013734;28;20476;-72
2020/12/27 06:45:40;;;;;;;1.73;1.10;;;4.90;99.90;;;;;;5015235;28;20477;-72
2020/12/27 06:48:06;;;;;;;0.70;0.50;;;4.90;99.90;;;;;;5014799;28;20442;-73
2020/12/27 06:50:41;;;;;;;0.80;0.60;;;4.80;99.90;;;;;;5014684;28;20439;-73
2020/12/27 06:53:27;;;;;;;1.23;0.50;;;4.80;99.90;;;;;;5013527;28;20188;-72
2020/12/27 06:55:58;;;;;;;1.37;0.53;;;4.90;99.90;;;;;;5046225;28;20438;-73
2020/12/27 06:58:24;;;;;;;0.80;0.60;;;4.90;99.90;;;;;;5014535;28;20849;-73
2020/12/27 07:01:16;;;;;;;0.80;0.50;;;4.90;99.90;;;;;;5007465;28;20518;-72
2020/12/27 07:03:43;;;;;;;0.90;0.57;;;4.90;99.90;;;;;;5010253;28;20434;-73
2020/12/27 07:06:24;;;;;;;0.70;0.50;;;4.90;99.90;;;;;;5014184;28;20454;-73
2020/12/27 07:08:51;;;;;;;0.70;0.50;;;4.90;99.90;;;;;;5012019;28;20504;-73
2020/12/27 07:11:21;;;;;;;6.50;0.80;;;4.90;99.90;;;;;;5002829;28;20463;-73
2020/12/27 07:13:48;;;;;;;1.13;0.60;;;4.90;99.90;;;;;;5013795;28;20419;-73
2020/12/27 07:16:15;;;;;;;0.80;0.60;;;4.90;99.90;;;;;;5014372;28;20411;-73
2020/12/27 07:18:45;;;;;;;1.37;0.63;;;4.90;99.90;;;;;;5014245;28;20427;-73
2020/12/27 07:21:18;;;;;;;0.83;0.60;;;5.00;99.90;;;;;;5010558;28;20459;-73
2020/12/27 07:23:48;;;;;;;1.00;0.60;;;4.90;99.90;;;;;;5014085;28;20430;-73
2020/12/27 07:26:14;;;;;;;0.90;0.57;;;4.90;99.90;;;;;;5014250;28;20515;-73
2020/12/27 07:28:39;;;;;;;0.80;0.50;;;5.00;99.90;;;;;;5014014;28;20442;-73
2020/12/27 07:31:06;;;;;;;0.97;0.53;;;4.90;99.90;;;;;;5013032;28;21090;-73
2020/12/27 07:33:33;;;;;;;1.10;0.60;;;4.90;99.90;;;;;;5014142;28;20234;-73
2020/12/27 07:36:02;;;;;;;0.80;0.60;;;5.00;99.90;;;;;;5013750;28;20466;-73
2020/12/27 07:38:49;;;;;;;0.70;0.50;;;4.90;99.90;;;;;;4999316;28;20632;-73
2020/12/27 07:41:26;;;;;;;0.80;0.50;;;5.00;99.90;;;;;;5005020;28;20443;-73
2020/12/27 07:43:52;;;;;;;0.80;0.60;;;5.00;99.90;;;;;;5013114;28;20427;-73
2020/12/27 07:46:21;;;;;;;0.87;0.60;;;5.00;99.90;;;;;;5006653;28;20939;-73
2020/12/27 07:48:48;;;;;;;2.53;0.53;;;5.00;99.90;;;;;;5003743;28;20441;-73
2020/12/27 07:51:18;;;;;;;0.87;0.60;;;5.10;99.90;;;;;;5013537;28;20817;-73
2020/12/27 07:53:54;;;;;;;0.80;0.60;;;5.00;99.90;;;;;;5010726;28;20463;-73
2020/12/27 07:56:21;;;;;;;1.10;0.80;;;5.10;99.90;;;;;;5045700;28;20414;-73
2020/12/27 07:58:52;;;;;;;0.80;0.60;;;5.10;99.90;;;;;;5010684;28;20431;-73
2020/12/27 08:01:38;;;;;;;0.70;0.50;;;5.10;99.90;;;;;;5012905;28;20446;-73
2020/12/27 08:04:07;;;;;;;1.73;0.60;;;5.00;99.90;;;;;;5013438;28;20990;-73
2020/12/27 08:06:39;;;;;;;1.23;0.60;;;5.00;99.90;;;;;;5012798;28;20435;-73
2020/12/27 08:09:06;;;;;;;0.80;0.50;;;5.10;99.90;;;;;;5012769;28;20442;-73
2020/12/27 08:11:33;;;;;;;0.70;0.50;;;5.00;99.90;;;;;;5012673;28;20880;-73
2020/12/27 08:14:04;;;;;;;1.73;0.67;;;5.10;99.90;;;;;;5013526;28;20491;-73
2020/12/27 08:16:30;;;;;;;0.90;0.70;;;5.10;99.90;;;;;;4998653;28;20419;-73
2020/12/27 08:19:02;;;;;;;0.80;0.50;;;5.10;99.90;;;;;;5012720;28;20435;-73
2020/12/27 08:21:28;;;;;;;0.70;0.53;;;5.10;99.90;;;;;;5011624;28;20435;-73
2020/12/27 08:24:07;;;;;;;0.80;0.70;;;5.20;99.90;;;;;;5011818;28;20423;-73
2020/12/27 08:26:39;;;;;;;0.90;0.60;;;5.20;99.90;;;;;;5012331;28;20862;-72
2020/12/27 08:29:20;;;;;;;0.70;0.57;;;5.10;99.90;;;;;;5044303;28;20431;-73
2020/12/27 08:31:47;;;;;;;0.80;0.60;;;5.20;99.90;;;;;;5011887;28;20509;-73
2020/12/27 08:34:15;;;;;;;0.80;0.53;;;5.20;99.90;;;;;;5012516;28;20442;-73
2020/12/27 08:36:46;;;;;;;0.70;0.50;;;5.20;99.90;;;;;;5010888;28;20435;-73
2020/12/27 08:39:21;;;;;;;0.90;0.70;;;5.30;99.90;;;;;;5012389;28;20489;-73
2020/12/27 08:41:56;;;;;;;0.80;0.67;;;5.20;99.90;;;;;;5012401;28;20534;-73
2020/12/27 08:44:27;;;;;;;0.73;0.50;;;5.30;99.90;;;;;;5011764;28;20427;-73
2020/12/27 08:46:53;;;;;;;0.70;0.50;;;5.40;99.90;;;;;;5008934;28;20770;-73
2020/12/27 08:50:05;;;;;;;1.00;0.50;;;5.40;99.90;;;;;;5012544;28;20459;-73
2020/12/27 08:52:33;;;;;;;1.00;0.60;;;5.40;99.90;;;;;;5004716;28;20542;-73
2020/12/27 08:55:05;;;;;;;0.93;0.70;;;5.40;99.90;;;;;;5010784;28;20841;-73
2020/12/27 08:57:31;;;;;;;0.80;0.60;;;5.50;99.90;;;;;;5008845;28;20431;-73
2020/12/27 09:00:11;;;;;;;0.97;0.70;;;5.50;99.90;;;;;;5012156;28;20462;-73
2020/12/27 09:02:38;;;;;;;1.00;0.70;;;5.40;99.90;;;;;;5005708;28;20883;-73
2020/12/27 09:05:06;;;;;;;2.33;0.60;;;5.50;99.90;;;;;;5012272;28;20508;-73
2020/12/27 09:07:34;;;;;;;0.70;0.50;;;5.50;99.90;;;;;;5012028;28;20442;-72
2020/12/27 09:10:13;;;;;;;0.97;0.60;;;5.50;99.90;;;;;;5007717;28;20436;-73
2020/12/27 09:12:58;;;;;;;0.80;0.60;;;5.50;99.90;;;;;;5006872;28;20461;-73
2020/12/27 09:15:37;;;;;;;1.13;0.60;;;5.50;99.90;;;;;;5012059;28;20538;-73
2020/12/27 09:18:10;;;;;;;1.00;0.90;;;5.40;99.90;;;;;;5012187;28;20445;-73
2020/12/27 09:20:39;;;;;;;1.73;1.10;;;5.40;99.90;;;;;;5011788;28;20433;-73
2020/12/27 09:23:15;;;;;;;0.80;0.60;;;5.40;99.90;;;;;;5011809;28;20473;-73
2020/12/27 09:25:45;;;;;;;1.23;0.80;;;5.40;99.90;;;;;;5010677;28;20430;-73
2020/12/27 09:28:12;;;;;;;0.80;0.50;;;5.40;99.90;;;;;;5011757;28;20942;-73
2020/12/27 09:30:38;;;;;;;1.33;0.50;;;5.40;99.90;;;;;;5011937;28;20446;-73
2020/12/27 09:33:04;;;;;;;1.20;0.90;;;5.30;99.90;;;;;;5011598;28;20826;-73
2020/12/27 09:35:30;;;;;;;0.90;0.73;;;5.30;99.90;;;;;;5011864;28;20431;-73
2020/12/27 09:37:55;;;;;;;0.97;0.73;;;5.20;99.90;;;;;;5011172;28;20172;-73
2020/12/27 09:40:21;;;;;;;1.07;0.70;;;5.20;99.90;;;;;;5003968;28;20241;-75
2020/12/27 09:42:47;;;;;;;0.90;0.70;;;5.20;99.90;;;;;;5011905;28;20203;-73
2020/12/27 09:45:17;;;;;;;3.00;0.77;;;5.20;99.90;;;;;;5011227;28;20653;-72
2020/12/27 09:47:56;;;;;;;0.97;0.60;;;5.10;99.90;;;;;;5012035;28;20478;-73
2020/12/27 09:50:40;;;;;;;0.90;0.60;;;5.20;99.90;;;;;;5012198;28;20966;-73
2020/12/27 09:53:06;;;;;;;1.73;0.60;;;5.20;99.90;;;;;;5013279;28;20470;-73
2020/12/27 09:55:34;;;;;;;1.87;0.67;;;5.10;99.90;;;;;;5015845;28;20793;-73
2020/12/27 09:58:00;;;;;;;0.83;0.80;;;5.20;99.90;;;;;;5015010;28;20667;-73
2020/12/27 10:00:26;;;;;;;4.30;0.80;;;5.10;99.90;;;;;;5015374;28;20545;-73
2020/12/27 10:02:52;;;;;;;1.07;0.70;;;5.10;99.90;;;;;;5015110;28;20200;-73
2020/12/27 10:05:17;;;;;;;1.23;0.70;;;5.10;99.90;;;;;;5015398;28;20441;-73
2020/12/27 10:07:44;;;;;;;0.90;0.60;;;5.20;99.90;;;;;;5015021;28;20435;-73
2020/12/27 10:10:11;;;;;;;1.97;0.80;;;5.20;99.90;;;;;;5026667;28;20550;-73
2020/12/27 10:12:37;;;;;;;1.30;0.67;;;5.20;99.90;;;;;;5030287;28;20473;-73
2020/12/27 10:15:05;;;;;;;1.00;0.70;;;5.20;99.90;;;;;;5015398;28;20419;-73
2020/12/27 10:17:31;;;;;;;2.07;0.80;;;5.30;99.90;;;;;;5015445;28;20434;-73
2020/12/27 10:19:58;;;;;;;1.27;0.63;;;5.30;99.90;;;;;;5009561;28;20518;-73
2020/12/27 10:22:25;;;;;;;1.97;0.63;;;5.30;99.90;;;;;;5014530;28;20254;-73
2020/12/27 10:24:50;;;;;;;0.90;0.67;;;5.30;99.90;;;;;;5019830;28;20418;-73
2020/12/27 10:27:16;;;;;;;1.10;0.77;;;5.30;99.90;;;;;;5010841;28;20430;-73
2020/12/27 10:29:42;;;;;;;1.13;0.80;;;5.40;99.90;;;;;;5011182;28;20192;-73
2020/12/27 10:32:07;;;;;;;1.40;0.80;;;5.40;99.90;;;;;;5017997;28;20609;-73
2020/12/27 10:34:34;;;;;;;0.90;0.70;;;5.40;99.90;;;;;;5015061;28;20264;-73
2020/12/27 10:37:00;;;;;;;0.90;0.60;;;5.40;99.90;;;;;;5013882;28;20501;-73
2020/12/27 10:39:27;;;;;;;1.20;0.90;;;5.40;99.90;;;;;;5013532;28;20439;-73
2020/12/27 10:41:54;;;;;;;1.10;0.73;;;5.30;99.90;;;;;;5013730;28;20458;-73
2020/12/27 10:44:20;;;;;;;0.90;0.70;;;5.40;99.90;;;;;;5013253;28;20435;-73
2020/12/27 10:46:49;;;;;;;1.10;0.73;;;5.40;99.90;;;;;;5028730;28;20447;-74
2020/12/27 10:49:16;;;;;;;1.20;0.80;;;5.40;99.90;;;;;;5008935;28;20431;-73
2020/12/27 10:51:41;;;;;;;1.20;0.73;;;5.40;99.90;;;;;;5005268;28;20489;-73
2020/12/27 10:54:09;;;;;;;1.33;1.23;;;5.30;99.90;;;;;;5006632;28;20435;-73
2020/12/27 10:56:35;;;;;;;2.50;1.50;;;5.30;99.90;;;;;;5010177;28;20180;-73
2020/12/27 10:59:01;;;;;;;1.10;0.90;;;5.40;99.90;;;;;;5008496;28;20478;-73
2020/12/27 11:01:27;;;;;;;2.10;0.90;;;5.30;99.90;;;;;;5019535;28;20233;-73
2020/12/27 11:03:53;;;;;;;0.87;0.70;;;5.40;99.90;;;;;;5008670;28;20660;-73
2020/12/27 11:06:18;;;;;;;0.83;0.60;;;5.30;99.90;;;;;;5012915;28;20522;-73
2020/12/27 11:08:44;;;;;;;0.90;0.60;;;5.40;99.90;;;;;;5011416;28;20179;-72
2020/12/27 11:11:10;;;;;;;1.13;0.70;;;5.40;99.90;;;;;;5044296;28;20638;-73
2020/12/27 11:13:36;;;;;;;0.80;0.60;;;5.30;99.90;;;;;;5013649;28;20207;-73
2020/12/27 11:16:02;;;;;;;2.40;0.70;;;5.40;99.90;;;;;;5009991;28;20443;-73
2020/12/27 11:18:27;;;;;;;1.93;0.70;;;5.40;99.90;;;;;;5006414;28;20173;-73
2020/12/27 11:20:53;;;;;;;0.90;0.70;;;5.50;99.90;;;;;;5004070;28;20440;-73
2020/12/27 11:23:19;;;;;;;1.27;0.70;;;5.40;99.90;;;;;;5012891;28;20180;-73
2020/12/27 11:25:44;;;;;;;2.23;0.70;;;5.50;99.90;;;;;;5013263;28;20187;-73
2020/12/27 11:28:10;;;;;;;1.03;0.60;;;5.40;99.90;;;;;;5012318;28;20177;-73
2020/12/27 11:30:35;;;;;;;1.50;0.70;;;5.50;99.90;;;;;;5011388;28;20615;-73
2020/12/27 11:33:01;;;;;;;0.90;0.70;;;5.60;99.90;;;;;;5011258;28;22021;-73
2020/12/27 11:35:27;;;;;;;1.67;0.87;;;5.60;99.90;;;;;;5011477;28;20183;-73
2020/12/27 11:37:53;;;;;;;1.07;0.80;;;5.60;99.90;;;;;;5012051;28;20172;-73
2020/12/27 11:40:20;;;;;;;0.97;0.80;;;5.60;99.90;;;;;;5009432;28;20211;-73
2020/12/27 11:42:46;;;;;;;1.20;0.73;;;5.70;99.90;;;;;;5008580;28;20558;-73
2020/12/27 11:45:11;;;;;;;1.20;0.90;;;5.70;99.90;;;;;;5012141;28;20533;-73
2020/12/27 11:47:37;;;;;;;1.03;0.70;;;5.70;99.90;;;;;;5012836;28;20435;-73
2020/12/27 11:50:06;;;;;;;1.30;0.87;;;5.70;99.90;;;;;;5011753;28;20214;-73
2020/12/27 11:52:32;;;;;;;1.00;0.60;;;5.70;99.90;;;;;;5011472;28;21297;-73
2020/12/27 11:54:58;;;;;;;0.90;0.67;;;5.60;99.90;;;;;;5010700;28;20474;-73
2020/12/27 11:57:23;;;;;;;0.83;0.70;;;5.70;99.90;;;;;;5008815;28;20442;-73
2020/12/27 11:59:49;;;;;;;0.90;0.70;;;5.70;99.90;;;;;;5011716;28;20658;-73
2020/12/27 12:02:15;;;;;;;0.93;0.50;;;5.70;99.90;;;;;;5011558;28;20241;-73
2020/12/27 12:04:40;;;;;;;0.90;0.70;;;5.70;99.90;;;;;;5011358;28;20180;-73
2020/12/27 12:07:06;;;;;;;3.33;0.70;;;5.60;99.90;;;;;;5011790;28;20184;-73
2020/12/27 12:09:32;;;;;;;0.80;0.60;;;5.70;99.90;;;;;;5011679;28;20552;-73
2020/12/27 12:11:57;;;;;;;1.30;0.80;;;5.70;99.90;;;;;;5007667;28;20581;-73
2020/12/27 12:14:23;;;;;;;2.07;1.50;;;5.70;99.90;;;;;;5012442;28;20423;-73
2020/12/27 12:16:49;;;;;;;0.80;0.60;;;5.70;99.90;;;;;;5011739;28;20184;-73
2020/12/27 12:19:14;;;;;;;0.90;0.80;;;5.70;99.90;;;;;;5010439;28;20184;-72
2020/12/27 12:21:40;;;;;;;1.57;0.60;;;5.70;99.90;;;;;;5011406;28;20203;-73
2020/12/27 12:24:06;;;;;;;0.90;0.70;;;5.70;99.90;;;;;;5011060;28;20705;-72
2020/12/27 12:26:32;;;;;;;2.40;0.90;;;5.70;99.90;;;;;;5011726;28;20177;-73
2020/12/27 12:28:59;;;;;;;1.10;0.60;;;5.70;99.90;;;;;;5009112;28;20338;-73
2020/12/27 12:31:26;;;;;;;1.47;0.70;;;5.70;99.90;;;;;;5025163;28;20447;-73
2020/12/27 12:33:53;;;;;;;0.93;0.63;;;5.70;99.90;;;;;;5010481;28;20920;-74
2020/12/27 12:36:24;;;;;;;4.10;1.00;;;5.70;99.90;;;;;;5008442;28;20455;-73
2020/12/27 12:38:51;;;;;;;0.83;0.67;;;5.80;99.90;;;;;;5010745;28;20420;-72
2020/12/27 12:41:25;;;;;;;1.23;0.70;;;5.70;99.90;;;;;;5011451;28;20439;-73
2020/12/27 12:43:51;;;;;;;0.90;0.67;;;5.70;99.90;;;;;;5011928;28;20434;-73
2020/12/27 12:46:18;;;;;;;0.87;0.50;;;5.70;99.90;;;;;;5010333;28;20974;-73
2020/12/27 12:48:44;;;;;;;2.10;0.50;;;5.80;99.90;;;;;;5000981;28;20451;-73
2020/12/27 12:51:10;;;;;;;0.90;0.60;;;5.70;99.90;;;;;;5011293;28;20454;-73
2020/12/27 12:53:36;;;;;;;0.90;0.67;;;5.70;99.90;;;;;;5011507;28;20960;-73
2020/12/27 12:56:03;;;;;;;0.90;0.60;;;5.70;99.90;;;;;;5005390;28;20192;-73
2020/12/27 12:58:28;;;;;;;1.23;0.90;;;5.70;99.90;;;;;;5010077;28;20438;-73
2020/12/27 13:00:54;;;;;;;1.37;0.60;;;5.70;99.90;;;;;;5010885;28;20423;-73
2020/12/27 13:03:20;;;;;;;0.80;0.60;;;5.70;99.90;;;;;;5010923;28;20244;-73